sensor_id;sensor_type;location;lat;lon;timestamp;P1;durP1;ratioP1;P2;durP2;ratioP2
85301;SDS011;75707;46.948;7.410;2024-01-15T00:00:14;3.5;;;2.400000095;;
85301;SDS011;75707;46.948;7.410;2024-01-15T00:01:16;4.400000095;;;2.799999952;;
85301;SDS011;75707;46.948;7.410;2024-01-15T00:02:17;4.199999809;;;2.5;;
85301;SDS011;75707;46.948;7.410;2024-01-15T00:03:49;2.700000048;;;2.5;;
85301;SDS011;75707;46.948;7.410;2024-01-15T00:04:50;2.799999952;;;2.400000095;;
85301;SDS011;75707;46.948;7.410;2024-01-15T00:05:52;3.299999952;;;2.400000095;;
85301;SDS011;75707;46.948;7.410;2024-01-15T00:06:53;4.400000095;;;2.599999905;;
85301;SDS011;75707;46.948;7.410;2024-01-15T00:07:54;3;;;2.400000095;;
85301;SDS011;75707;46.948;7.410;2024-01-15T00:08:55;3.599999905;;;2.700000048;;
85301;SDS011;75707;46.948;7.410;2024-01-15T00:09:57;2.700000048;;;2.5;;
85301;SDS011;75707;46.948;7.410;2024-01-15T00:10:58;3.900000095;;;3;;
85301;SDS011;75707;46.948;7.410;2024-01-15T00:11:59;3;;;2.299999952;;
85301;SDS011;75707;46.948;7.410;2024-01-15T00:14:01;4.599999905;;;2.599999905;;
85301;SDS011;75707;46.948;7.410;2024-01-15T00:15:03;3.200000048;;;2.5;;
85301;SDS011;75707;46.948;7.410;2024-01-15T00:16:04;2.599999905;;;2.400000095;;
85301;SDS011;75707;46.948;7.410;2024-01-15T00:17:05;3.400000095;;;2.599999905;;
85301;SDS011;75707;46.948;7.410;2024-01-15T00:18:06;3.799999952;;;2.900000095;;
85301;SDS011;75707;46.948;7.410;2024-01-15T00:19:08;3.400000095;;;2.599999905;;
85301;SDS011;75707;46.948;7.410;2024-01-15T00:20:09;3.599999905;;;2.599999905;;
85301;SDS011;75707;46.948;7.410;2024-01-15T00:21:10;3.299999952;;;2.5;;
85301;SDS011;75707;46.948;7.410;2024-01-15T00:22:12;4.900000095;;;3.400000095;;
85301;SDS011;75707;46.948;7.410;2024-01-15T00:23:13;4.599999905;;;3.299999952;;
85301;SDS011;75707;46.948;7.410;2024-01-15T00:24:14;4.400000095;;;3.400000095;;
85301;SDS011;75707;46.948;7.410;2024-01-15T00:25:16;4.900000095;;;3.5;;
85301;SDS011;75707;46.948;7.410;2024-01-15T00:26:17;4.199999809;;;3.400000095;;
85301;SDS011;75707;46.948;7.410;2024-01-15T00:27:49;5.599999905;;;3.299999952;;
85301;SDS011;75707;46.948;7.410;2024-01-15T00:28:50;4.099999905;;;3.200000048;;
85301;SDS011;75707;46.948;7.410;2024-01-15T00:29:52;5.400000095;;;3.299999952;;
85301;SDS011;75707;46.948;7.410;2024-01-15T00:30:53;4.699999809;;;3.200000048;;
85301;SDS011;75707;46.948;7.410;2024-01-15T00:31:54;4.300000191;;;3.299999952;;
85301;SDS011;75707;46.948;7.410;2024-01-15T00:32:55;3.900000095;;;3.400000095;;
85301;SDS011;75707;46.948;7.410;2024-01-15T00:33:57;4.900000095;;;3.200000048;;
85301;SDS011;75707;46.948;7.410;2024-01-15T00:34:58;3.400000095;;;3.099999905;;
85301;SDS011;75707;46.948;7.410;2024-01-15T00:35:59;5.099999905;;;3.599999905;;
85301;SDS011;75707;46.948;7.410;2024-01-15T00:37:00;3.5;;;3.200000048;;
85301;SDS011;75707;46.948;7.410;2024-01-15T00:38:02;4.5;;;3.299999952;;
85301;SDS011;75707;46.948;7.410;2024-01-15T00:39:03;4.599999905;;;3.5;;
85301;SDS011;75707;46.948;7.410;2024-01-15T00:40:05;2.900000095;;;2.599999905;;
85301;SDS011;75707;46.948;7.410;2024-01-15T00:41:05;4.400000095;;;2.299999952;;
85301;SDS011;75707;46.948;7.410;2024-01-15T00:42:07;8.5;;;4.400000095;;
85301;SDS011;75707;46.948;7.410;2024-01-15T00:43:08;2.799999952;;;2.099999905;;
85301;SDS011;75707;46.948;7.410;2024-01-15T00:44:09;1.700000048;;;1.600000024;;
85301;SDS011;75707;46.948;7.410;2024-01-15T00:45:10;2.400000095;;;1.899999976;;
85301;SDS011;75707;46.948;7.410;2024-01-15T00:46:11;3.400000095;;;1.700000048;;
85301;SDS011;75707;46.948;7.410;2024-01-15T00:47:12;2.5;;;1.899999976;;
85301;SDS011;75707;46.948;7.410;2024-01-15T00:48:14;2;;;1.5;;
85301;SDS011;75707;46.948;7.410;2024-01-15T00:49:15;1.600000024;;;1.399999976;;
85301;SDS011;75707;46.948;7.410;2024-01-15T00:50:17;1.799999952;;;1.299999952;;
85301;SDS011;75707;46.948;7.410;2024-01-15T00:51:49;1.399999976;;;1.299999952;;
85301;SDS011;75707;46.948;7.410;2024-01-15T00:52:50;1.700000048;;;1.299999952;;
85301;SDS011;75707;46.948;7.410;2024-01-15T00:53:51;1.5;;;1.399999976;;
85301;SDS011;75707;46.948;7.410;2024-01-15T00:54:53;2.200000048;;;1.5;;
85301;SDS011;75707;46.948;7.410;2024-01-15T00:55:54;1.299999952;;;1.100000024;;
85301;SDS011;75707;46.948;7.410;2024-01-15T00:56:55;2;;;1.200000048;;
85301;SDS011;75707;46.948;7.410;2024-01-15T00:57:57;1.5;;;1.100000024;;
85301;SDS011;75707;46.948;7.410;2024-01-15T00:58:58;1.299999952;;;1.100000024;;
85301;SDS011;75707;46.948;7.410;2024-01-15T00:59:59;2.900000095;;;1.200000048;;
85301;SDS011;75707;46.948;7.410;2024-01-15T01:01:01;1.100000024;;;0.899999976;;
85301;SDS011;75707;46.948;7.410;2024-01-15T01:02:02;1.899999976;;;0.899999976;;
85301;SDS011;75707;46.948;7.410;2024-01-15T01:03:03;1.200000048;;;1.100000024;;
85301;SDS011;75707;46.948;7.410;2024-01-15T01:04:05;1.200000048;;;1;;
85301;SDS011;75707;46.948;7.410;2024-01-15T01:05:06;1.100000024;;;1;;
85301;SDS011;75707;46.948;7.410;2024-01-15T01:06:07;1.200000048;;;1.100000024;;
85301;SDS011;75707;46.948;7.410;2024-01-15T01:07:08;1;;;0.899999976;;
85301;SDS011;75707;46.948;7.410;2024-01-15T01:08:10;2.400000095;;;0.800000012;;
85301;SDS011;75707;46.948;7.410;2024-01-15T01:09:11;1.299999952;;;0.899999976;;
85301;SDS011;75707;46.948;7.410;2024-01-15T01:10:12;0.899999976;;;0.800000012;;
85301;SDS011;75707;46.948;7.410;2024-01-15T01:11:13;0.800000012;;;0.800000012;;
85301;SDS011;75707;46.948;7.410;2024-01-15T01:12:14;1.399999976;;;0.899999976;;
85301;SDS011;75707;46.948;7.410;2024-01-15T01:13:16;2.200000048;;;0.899999976;;
85301;SDS011;75707;46.948;7.410;2024-01-15T01:14:56;1;;;0.899999976;;
85301;SDS011;75707;46.948;7.410;2024-01-15T01:17:51;1.299999952;;;1;;
85301;SDS011;75707;46.948;7.410;2024-01-15T01:18:53;0.899999976;;;0.800000012;;
85301;SDS011;75707;46.948;7.410;2024-01-15T01:19:54;1.5;;;1.100000024;;
85301;SDS011;75707;46.948;7.410;2024-01-15T01:20:55;1.100000024;;;0.899999976;;
85301;SDS011;75707;46.948;7.410;2024-01-15T01:21:56;1.5;;;1;;
85301;SDS011;75707;46.948;7.410;2024-01-15T01:22:58;1.100000024;;;1;;
85301;SDS011;75707;46.948;7.410;2024-01-15T01:23:59;2.200000048;;;1.100000024;;
85301;SDS011;75707;46.948;7.410;2024-01-15T01:25:00;1.200000048;;;0.899999976;;
85301;SDS011;75707;46.948;7.410;2024-01-15T01:26:01;1.299999952;;;1.200000048;;
85301;SDS011;75707;46.948;7.410;2024-01-15T01:27:03;1.5;;;0.899999976;;
85301;SDS011;75707;46.948;7.410;2024-01-15T01:28:04;1.299999952;;;1.100000024;;
85301;SDS011;75707;46.948;7.410;2024-01-15T01:29:05;1.899999976;;;1.299999952;;
85301;SDS011;75707;46.948;7.410;2024-01-15T01:30:06;1.5;;;1.200000048;;
85301;SDS011;75707;46.948;7.410;2024-01-15T01:31:07;1.200000048;;;1.100000024;;
85301;SDS011;75707;46.948;7.410;2024-01-15T01:32:08;1.5;;;1.200000048;;
85301;SDS011;75707;46.948;7.410;2024-01-15T01:33:09;1.5;;;1.399999976;;
85301;SDS011;75707;46.948;7.410;2024-01-15T01:34:13;1.700000048;;;1.200000048;;
85301;SDS011;75707;46.948;7.410;2024-01-15T01:35:12;0.899999976;;;0.800000012;;
85301;SDS011;75707;46.948;7.410;2024-01-15T01:36:13;1.399999976;;;1;;
85301;SDS011;75707;46.948;7.410;2024-01-15T01:37:14;1.700000048;;;1.600000024;;
85301;SDS011;75707;46.948;7.410;2024-01-15T01:38:16;1.200000048;;;1;;
85301;SDS011;75707;46.948;7.410;2024-01-15T01:39:48;2.599999905;;;0.899999976;;
85301;SDS011;75707;46.948;7.410;2024-01-15T01:40:49;2.299999952;;;1;;
85301;SDS011;75707;46.948;7.410;2024-01-15T01:41:50;0.800000012;;;0.800000012;;
85301;SDS011;75707;46.948;7.410;2024-01-15T01:42:52;1.700000048;;;1.100000024;;
85301;SDS011;75707;46.948;7.410;2024-01-15T01:43:53;1.100000024;;;0.800000012;;
85301;SDS011;75707;46.948;7.410;2024-01-15T01:44:54;2;;;1.100000024;;
85301;SDS011;75707;46.948;7.410;2024-01-15T01:45:56;1.100000024;;;1;;
85301;SDS011;75707;46.948;7.410;2024-01-15T01:46:57;0.899999976;;;0.800000012;;
85301;SDS011;75707;46.948;7.410;2024-01-15T01:47:58;1;;;0.899999976;;
85301;SDS011;75707;46.948;7.410;2024-01-15T01:49:00;4.400000095;;;1.100000024;;
85301;SDS011;75707;46.948;7.410;2024-01-15T01:50:01;1.399999976;;;1;;
85301;SDS011;75707;46.948;7.410;2024-01-15T01:51:03;1.200000048;;;1.100000024;;
85301;SDS011;75707;46.948;7.410;2024-01-15T01:52:05;1.100000024;;;1;;
85301;SDS011;75707;46.948;7.410;2024-01-15T01:53:06;1.799999952;;;1.600000024;;
85301;SDS011;75707;46.948;7.410;2024-01-15T01:54:07;1.799999952;;;1.100000024;;
85301;SDS011;75707;46.948;7.410;2024-01-15T01:55:09;1.100000024;;;1;;
85301;SDS011;75707;46.948;7.410;2024-01-15T01:56:10;1.899999976;;;1.5;;
85301;SDS011;75707;46.948;7.410;2024-01-15T01:57:12;1.399999976;;;1;;
85301;SDS011;75707;46.948;7.410;2024-01-15T01:58:14;1.200000048;;;1;;
85301;SDS011;75707;46.948;7.410;2024-01-15T01:59:16;1;;;0.899999976;;
85301;SDS011;75707;46.948;7.410;2024-01-15T02:00:49;1.799999952;;;1.600000024;;
85301;SDS011;75707;46.948;7.410;2024-01-15T02:01:51;1.600000024;;;1.200000048;;
85301;SDS011;75707;46.948;7.410;2024-01-15T02:02:52;1.399999976;;;1.100000024;;
85301;SDS011;75707;46.948;7.410;2024-01-15T02:03:54;1.200000048;;;1.100000024;;
85301;SDS011;75707;46.948;7.410;2024-01-15T02:04:55;1;;;0.899999976;;
85301;SDS011;75707;46.948;7.410;2024-01-15T02:05:57;1.200000048;;;1.100000024;;
85301;SDS011;75707;46.948;7.410;2024-01-15T02:06:59;1.299999952;;;1.100000024;;
85301;SDS011;75707;46.948;7.410;2024-01-15T02:08:01;1.299999952;;;1.200000048;;
85301;SDS011;75707;46.948;7.410;2024-01-15T02:09:03;1.5;;;1.100000024;;
85301;SDS011;75707;46.948;7.410;2024-01-15T02:10:04;1.700000048;;;1.200000048;;
85301;SDS011;75707;46.948;7.410;2024-01-15T02:11:06;1.5;;;1;;
85301;SDS011;75707;46.948;7.410;2024-01-15T02:12:07;2.299999952;;;1.200000048;;
85301;SDS011;75707;46.948;7.410;2024-01-15T02:13:08;1.399999976;;;1.299999952;;
85301;SDS011;75707;46.948;7.410;2024-01-15T02:14:10;1.600000024;;;1.200000048;;
85301;SDS011;75707;46.948;7.410;2024-01-15T02:15:11;1.299999952;;;1.200000048;;
85301;SDS011;75707;46.948;7.410;2024-01-15T02:17:14;2.099999905;;;1.600000024;;
85301;SDS011;75707;46.948;7.410;2024-01-15T02:18:17;2;;;1.200000048;;
85301;SDS011;75707;46.948;7.410;2024-01-15T02:19:49;1.799999952;;;1.299999952;;
85301;SDS011;75707;46.948;7.410;2024-01-15T02:20:51;2;;;1.5;;
85301;SDS011;75707;46.948;7.410;2024-01-15T02:21:53;2;;;1.100000024;;
85301;SDS011;75707;46.948;7.410;2024-01-15T02:23:00;2.099999905;;;1.399999976;;
85301;SDS011;75707;46.948;7.410;2024-01-15T02:23:56;1.5;;;1.399999976;;
85301;SDS011;75707;46.948;7.410;2024-01-15T02:24:57;1.600000024;;;1.5;;
85301;SDS011;75707;46.948;7.410;2024-01-15T02:27:00;1.799999952;;;1.700000048;;
85301;SDS011;75707;46.948;7.410;2024-01-15T02:28:02;1.399999976;;;1.299999952;;
85301;SDS011;75707;46.948;7.410;2024-01-15T02:30:05;1.5;;;1.399999976;;
85301;SDS011;75707;46.948;7.410;2024-01-15T02:31:06;1.700000048;;;1.600000024;;
85301;SDS011;75707;46.948;7.410;2024-01-15T02:32:08;1.899999976;;;1.700000048;;
85301;SDS011;75707;46.948;7.410;2024-01-15T02:33:09;2;;;1.899999976;;
85301;SDS011;75707;46.948;7.410;2024-01-15T02:34:10;1.600000024;;;1.299999952;;
85301;SDS011;75707;46.948;7.410;2024-01-15T02:35:12;1.700000048;;;1.600000024;;
85301;SDS011;75707;46.948;7.410;2024-01-15T02:36:14;1.5;;;1.399999976;;
85301;SDS011;75707;46.948;7.410;2024-01-15T02:37:16;1.5;;;1.299999952;;
85301;SDS011;75707;46.948;7.410;2024-01-15T02:38:48;2.299999952;;;1.700000048;;
85301;SDS011;75707;46.948;7.410;2024-01-15T02:39:49;2.099999905;;;2;;
85301;SDS011;75707;46.948;7.410;2024-01-15T02:40:51;1.600000024;;;1.5;;
85301;SDS011;75707;46.948;7.410;2024-01-15T02:41:53;2.5;;;1.5;;
85301;SDS011;75707;46.948;7.410;2024-01-15T02:42:54;1.600000024;;;1.399999976;;
85301;SDS011;75707;46.948;7.410;2024-01-15T02:43:56;1.600000024;;;1.5;;
85301;SDS011;75707;46.948;7.410;2024-01-15T02:44:58;2.400000095;;;1.700000048;;
85301;SDS011;75707;46.948;7.410;2024-01-15T02:45:59;2.099999905;;;1.799999952;;
85301;SDS011;75707;46.948;7.410;2024-01-15T02:47:01;2.700000048;;;1.700000048;;
85301;SDS011;75707;46.948;7.410;2024-01-15T02:48:02;2;;;1.799999952;;
85301;SDS011;75707;46.948;7.410;2024-01-15T02:49:04;2.400000095;;;1.700000048;;
85301;SDS011;75707;46.948;7.410;2024-01-15T02:50:06;1.899999976;;;1.299999952;;
85301;SDS011;75707;46.948;7.410;2024-01-15T02:51:07;2.900000095;;;1.799999952;;
85301;SDS011;75707;46.948;7.410;2024-01-15T02:52:08;3.099999905;;;1.799999952;;
85301;SDS011;75707;46.948;7.410;2024-01-15T02:53:10;1.799999952;;;1.700000048;;
85301;SDS011;75707;46.948;7.410;2024-01-15T02:54:11;2.099999905;;;1.899999976;;
85301;SDS011;75707;46.948;7.410;2024-01-15T02:55:13;1.899999976;;;1.799999952;;
85301;SDS011;75707;46.948;7.410;2024-01-15T02:57:16;2.5;;;1.5;;
85301;SDS011;75707;46.948;7.410;2024-01-15T02:58:49;1.799999952;;;1.700000048;;
85301;SDS011;75707;46.948;7.410;2024-01-15T02:59:50;2.400000095;;;1.5;;
85301;SDS011;75707;46.948;7.410;2024-01-15T03:00:52;1.799999952;;;1.700000048;;
85301;SDS011;75707;46.948;7.410;2024-01-15T03:01:53;2.299999952;;;1.799999952;;
85301;SDS011;75707;46.948;7.410;2024-01-15T03:02:54;2.5;;;1.700000048;;
85301;SDS011;75707;46.948;7.410;2024-01-15T03:03:56;1.600000024;;;1.5;;
85301;SDS011;75707;46.948;7.410;2024-01-15T03:04:57;2;;;1.799999952;;
85301;SDS011;75707;46.948;7.410;2024-01-15T03:05:59;2.099999905;;;1.700000048;;
85301;SDS011;75707;46.948;7.410;2024-01-15T03:07:00;1.899999976;;;1.799999952;;
85301;SDS011;75707;46.948;7.410;2024-01-15T03:08:01;2;;;1.5;;
85301;SDS011;75707;46.948;7.410;2024-01-15T03:09:03;2;;;1.799999952;;
85301;SDS011;75707;46.948;7.410;2024-01-15T03:10:05;2.299999952;;;2.099999905;;
85301;SDS011;75707;46.948;7.410;2024-01-15T03:11:06;1.700000048;;;1.600000024;;
85301;SDS011;75707;46.948;7.410;2024-01-15T03:12:07;2.400000095;;;2.200000048;;
85301;SDS011;75707;46.948;7.410;2024-01-15T03:13:09;2.099999905;;;1.899999976;;
85301;SDS011;75707;46.948;7.410;2024-01-15T03:14:10;2.400000095;;;1.799999952;;
85301;SDS011;75707;46.948;7.410;2024-01-15T03:15:11;2.700000048;;;2.200000048;;
85301;SDS011;75707;46.948;7.410;2024-01-15T03:16:13;1.899999976;;;1.700000048;;
85301;SDS011;75707;46.948;7.410;2024-01-15T03:17:15;2;;;1.799999952;;
85301;SDS011;75707;46.948;7.410;2024-01-15T03:19:49;2.5;;;2.299999952;;
85301;SDS011;75707;46.948;7.410;2024-01-15T03:20:51;2;;;1.700000048;;
85301;SDS011;75707;46.948;7.410;2024-01-15T03:21:52;3.200000048;;;1.799999952;;
85301;SDS011;75707;46.948;7.410;2024-01-15T03:22:53;2.099999905;;;1.899999976;;
85301;SDS011;75707;46.948;7.410;2024-01-15T03:23:55;2.700000048;;;2.400000095;;
85301;SDS011;75707;46.948;7.410;2024-01-15T03:24:56;2.099999905;;;1.899999976;;
85301;SDS011;75707;46.948;7.410;2024-01-15T03:25:57;2.599999905;;;1.700000048;;
85301;SDS011;75707;46.948;7.410;2024-01-15T03:26:59;2.200000048;;;1.799999952;;
85301;SDS011;75707;46.948;7.410;2024-01-15T03:28:00;2.900000095;;;1.899999976;;
85301;SDS011;75707;46.948;7.410;2024-01-15T03:29:02;2;;;1.600000024;;
85301;SDS011;75707;46.948;7.410;2024-01-15T03:30:03;2.599999905;;;1.799999952;;
85301;SDS011;75707;46.948;7.410;2024-01-15T03:31:05;2.700000048;;;2;;
85301;SDS011;75707;46.948;7.410;2024-01-15T03:32:06;3.5;;;1.700000048;;
85301;SDS011;75707;46.948;7.410;2024-01-15T03:33:08;4.199999809;;;1.899999976;;
85301;SDS011;75707;46.948;7.410;2024-01-15T03:34:09;2.5;;;2.299999952;;
85301;SDS011;75707;46.948;7.410;2024-01-15T03:35:10;1.799999952;;;1.600000024;;
85301;SDS011;75707;46.948;7.410;2024-01-15T03:36:12;3.099999905;;;1.899999976;;
85301;SDS011;75707;46.948;7.410;2024-01-15T03:37:14;2.700000048;;;1.899999976;;
85301;SDS011;75707;46.948;7.410;2024-01-15T03:38:16;2.400000095;;;2.200000048;;
85301;SDS011;75707;46.948;7.410;2024-01-15T03:39:49;2.599999905;;;1.799999952;;
85301;SDS011;75707;46.948;7.410;2024-01-15T03:40:50;2;;;1.799999952;;
85301;SDS011;75707;46.948;7.410;2024-01-15T03:41:52;2.299999952;;;2;;
85301;SDS011;75707;46.948;7.410;2024-01-15T03:42:53;2.900000095;;;2.099999905;;
85301;SDS011;75707;46.948;7.410;2024-01-15T03:43:55;2.200000048;;;1.799999952;;
85301;SDS011;75707;46.948;7.410;2024-01-15T03:44:57;3.099999905;;;2.099999905;;
85301;SDS011;75707;46.948;7.410;2024-01-15T03:45:58;2.299999952;;;2;;
85301;SDS011;75707;46.948;7.410;2024-01-15T03:46:59;2.200000048;;;2;;
85301;SDS011;75707;46.948;7.410;2024-01-15T03:48:01;2.200000048;;;1.899999976;;
85301;SDS011;75707;46.948;7.410;2024-01-15T03:49:02;2.400000095;;;2.200000048;;
85301;SDS011;75707;46.948;7.410;2024-01-15T03:50:04;2;;;1.899999976;;
85301;SDS011;75707;46.948;7.410;2024-01-15T03:51:05;2.400000095;;;2;;
85301;SDS011;75707;46.948;7.410;2024-01-15T03:52:07;2.299999952;;;2;;
85301;SDS011;75707;46.948;7.410;2024-01-15T03:53:09;2.599999905;;;2.200000048;;
85301;SDS011;75707;46.948;7.410;2024-01-15T03:54:10;3.400000095;;;2;;
85301;SDS011;75707;46.948;7.410;2024-01-15T03:55:12;2.299999952;;;2.099999905;;
85301;SDS011;75707;46.948;7.410;2024-01-15T03:56:13;2.700000048;;;2.299999952;;
85301;SDS011;75707;46.948;7.410;2024-01-15T03:57:15;3.200000048;;;2.200000048;;
85301;SDS011;75707;46.948;7.410;2024-01-15T03:58:48;2.5;;;1.899999976;;
85301;SDS011;75707;46.948;7.410;2024-01-15T03:59:49;2.099999905;;;1.899999976;;
85301;SDS011;75707;46.948;7.410;2024-01-15T04:00:51;2.200000048;;;1.799999952;;
85301;SDS011;75707;46.948;7.410;2024-01-15T04:01:53;2.200000048;;;2;;
85301;SDS011;75707;46.948;7.410;2024-01-15T04:02:54;2.400000095;;;2.200000048;;
85301;SDS011;75707;46.948;7.410;2024-01-15T04:04:57;2.799999952;;;2.200000048;;
85301;SDS011;75707;46.948;7.410;2024-01-15T04:05:59;2.299999952;;;2.099999905;;
85301;SDS011;75707;46.948;7.410;2024-01-15T04:07:01;2.400000095;;;1.899999976;;
85301;SDS011;75707;46.948;7.410;2024-01-15T04:08:02;2.400000095;;;2.200000048;;
85301;SDS011;75707;46.948;7.410;2024-01-15T04:09:04;3.200000048;;;2.299999952;;
85301;SDS011;75707;46.948;7.410;2024-01-15T04:10:05;3.299999952;;;2.599999905;;
85301;SDS011;75707;46.948;7.410;2024-01-15T04:11:07;2.400000095;;;2.200000048;;
85301;SDS011;75707;46.948;7.410;2024-01-15T04:12:09;2.599999905;;;2.200000048;;
85301;SDS011;75707;46.948;7.410;2024-01-15T04:13:10;2.900000095;;;2.700000048;;
85301;SDS011;75707;46.948;7.410;2024-01-15T04:14:11;5.800000191;;;2.599999905;;
85301;SDS011;75707;46.948;7.410;2024-01-15T04:15:13;2.599999905;;;2.400000095;;
85301;SDS011;75707;46.948;7.410;2024-01-15T04:16:14;2.900000095;;;2.200000048;;
85301;SDS011;75707;46.948;7.410;2024-01-15T04:17:17;2.900000095;;;2.599999905;;
85301;SDS011;75707;46.948;7.410;2024-01-15T04:18:49;4;;;2.200000048;;
85301;SDS011;75707;46.948;7.410;2024-01-15T04:19:51;3;;;2.700000048;;
85301;SDS011;75707;46.948;7.410;2024-01-15T04:21:53;3.299999952;;;2.599999905;;
85301;SDS011;75707;46.948;7.410;2024-01-15T04:22:55;3;;;2.700000048;;
85301;SDS011;75707;46.948;7.410;2024-01-15T04:23:56;3.400000095;;;3.099999905;;
85301;SDS011;75707;46.948;7.410;2024-01-15T04:24:57;4.699999809;;;3.200000048;;
85301;SDS011;75707;46.948;7.410;2024-01-15T04:25:59;3;;;2.700000048;;
85301;SDS011;75707;46.948;7.410;2024-01-15T04:27:00;2.799999952;;;2.599999905;;
85301;SDS011;75707;46.948;7.410;2024-01-15T04:28:02;3.200000048;;;2.799999952;;
85301;SDS011;75707;46.948;7.410;2024-01-15T04:29:03;3.400000095;;;3.099999905;;
85301;SDS011;75707;46.948;7.410;2024-01-15T04:30:05;3.400000095;;;3;;
85301;SDS011;75707;46.948;7.410;2024-01-15T04:31:06;4;;;2.900000095;;
85301;SDS011;75707;46.948;7.410;2024-01-15T04:32:08;4.199999809;;;2.5;;
85301;SDS011;75707;46.948;7.410;2024-01-15T04:33:09;3.299999952;;;3.099999905;;
85301;SDS011;75707;46.948;7.410;2024-01-15T04:34:11;3.799999952;;;2.900000095;;
85301;SDS011;75707;46.948;7.410;2024-01-15T04:35:12;4.099999905;;;2.900000095;;
85301;SDS011;75707;46.948;7.410;2024-01-15T04:36:14;3.599999905;;;3.099999905;;
85301;SDS011;75707;46.948;7.410;2024-01-15T04:37:17;3.099999905;;;2.799999952;;
85301;SDS011;75707;46.948;7.410;2024-01-15T04:38:49;3.5;;;2.900000095;;
85301;SDS011;75707;46.948;7.410;2024-01-15T04:39:51;3.599999905;;;3.200000048;;
85301;SDS011;75707;46.948;7.410;2024-01-15T04:40:52;3.400000095;;;3.099999905;;
85301;SDS011;75707;46.948;7.410;2024-01-15T04:41:54;4.300000191;;;3.299999952;;
85301;SDS011;75707;46.948;7.410;2024-01-15T04:42:55;3.5;;;3.200000048;;
85301;SDS011;75707;46.948;7.410;2024-01-15T04:43:56;4.699999809;;;3.099999905;;
85301;SDS011;75707;46.948;7.410;2024-01-15T04:44:59;3.5;;;2.799999952;;
85301;SDS011;75707;46.948;7.410;2024-01-15T04:45:59;3.900000095;;;3.5;;
85301;SDS011;75707;46.948;7.410;2024-01-15T04:47:01;4.5;;;3.400000095;;
85301;SDS011;75707;46.948;7.410;2024-01-15T04:48:02;3.299999952;;;3;;
85301;SDS011;75707;46.948;7.410;2024-01-15T04:49:04;3.599999905;;;3.200000048;;
85301;SDS011;75707;46.948;7.410;2024-01-15T04:50:05;3.700000048;;;3.400000095;;
85301;SDS011;75707;46.948;7.410;2024-01-15T04:52:08;4.199999809;;;3.200000048;;
85301;SDS011;75707;46.948;7.410;2024-01-15T04:53:10;3.299999952;;;3;;
85301;SDS011;75707;46.948;7.410;2024-01-15T04:54:11;3.700000048;;;3.400000095;;
85301;SDS011;75707;46.948;7.410;2024-01-15T04:55:13;3.400000095;;;2.900000095;;
85301;SDS011;75707;46.948;7.410;2024-01-15T04:56:14;3.299999952;;;3;;
85301;SDS011;75707;46.948;7.410;2024-01-15T04:57:16;3.200000048;;;2.900000095;;
85301;SDS011;75707;46.948;7.410;2024-01-15T04:58:48;2.700000048;;;2.5;;
85301;SDS011;75707;46.948;7.410;2024-01-15T04:59:49;3.599999905;;;3.200000048;;
85301;SDS011;75707;46.948;7.410;2024-01-15T05:00:51;3.200000048;;;2.400000095;;
85301;SDS011;75707;46.948;7.410;2024-01-15T05:01:52;3.299999952;;;2.700000048;;
85301;SDS011;75707;46.948;7.410;2024-01-15T05:02:54;2.700000048;;;2.400000095;;
85301;SDS011;75707;46.948;7.410;2024-01-15T05:03:55;4.300000191;;;2.599999905;;
85301;SDS011;75707;46.948;7.410;2024-01-15T05:04:56;2.700000048;;;2.5;;
85301;SDS011;75707;46.948;7.410;2024-01-15T05:05:58;2.900000095;;;2.5;;
85301;SDS011;75707;46.948;7.410;2024-01-15T05:06:59;2.700000048;;;2.5;;
85301;SDS011;75707;46.948;7.410;2024-01-15T05:09:02;3.299999952;;;3;;
85301;SDS011;75707;46.948;7.410;2024-01-15T05:10:03;2.900000095;;;2.599999905;;
85301;SDS011;75707;46.948;7.410;2024-01-15T05:11:05;2.400000095;;;2.200000048;;
85301;SDS011;75707;46.948;7.410;2024-01-15T05:12:06;2.700000048;;;2.5;;
85301;SDS011;75707;46.948;7.410;2024-01-15T05:13:07;2.700000048;;;2.200000048;;
85301;SDS011;75707;46.948;7.410;2024-01-15T05:14:09;2.900000095;;;2.599999905;;
85301;SDS011;75707;46.948;7.410;2024-01-15T05:15:10;3.099999905;;;2.799999952;;
85301;SDS011;75707;46.948;7.410;2024-01-15T05:16:12;2.900000095;;;2.599999905;;
85301;SDS011;75707;46.948;7.410;2024-01-15T05:17:13;2.799999952;;;2.400000095;;
85301;SDS011;75707;46.948;7.410;2024-01-15T05:18:15;2.400000095;;;2.200000048;;
85301;SDS011;75707;46.948;7.410;2024-01-15T05:19:17;3.200000048;;;2.799999952;;
85301;SDS011;75707;46.948;7.410;2024-01-15T05:20:49;4.099999905;;;2.799999952;;
85301;SDS011;75707;46.948;7.410;2024-01-15T05:21:51;3.5;;;2.700000048;;
85301;SDS011;75707;46.948;7.410;2024-01-15T05:22:52;3.900000095;;;2.900000095;;
85301;SDS011;75707;46.948;7.410;2024-01-15T05:23:54;3;;;2.799999952;;
85301;SDS011;75707;46.948;7.410;2024-01-15T05:24:55;3.400000095;;;2.5;;
85301;SDS011;75707;46.948;7.410;2024-01-15T05:25:57;4.199999809;;;2.900000095;;
85301;SDS011;75707;46.948;7.410;2024-01-15T05:26:58;3.200000048;;;2.700000048;;
85301;SDS011;75707;46.948;7.410;2024-01-15T05:28:01;3.599999905;;;2.299999952;;
85301;SDS011;75707;46.948;7.410;2024-01-15T05:29:01;3.599999905;;;2.599999905;;
85301;SDS011;75707;46.948;7.410;2024-01-15T05:30:03;3.400000095;;;3.099999905;;
85301;SDS011;75707;46.948;7.410;2024-01-15T05:31:04;3;;;2.5;;
85301;SDS011;75707;46.948;7.410;2024-01-15T05:32:05;2.400000095;;;2.200000048;;
85301;SDS011;75707;46.948;7.410;2024-01-15T05:33:07;2.299999952;;;2.099999905;;
85301;SDS011;75707;46.948;7.410;2024-01-15T05:34:08;2;;;1.899999976;;
85301;SDS011;75707;46.948;7.410;2024-01-15T05:35:10;3.200000048;;;2.200000048;;
85301;SDS011;75707;46.948;7.410;2024-01-15T05:36:11;2.599999905;;;1.700000048;;
85301;SDS011;75707;46.948;7.410;2024-01-15T05:37:13;2.700000048;;;1.799999952;;
85301;SDS011;75707;46.948;7.410;2024-01-15T05:38:14;2.900000095;;;2.099999905;;
85301;SDS011;75707;46.948;7.410;2024-01-15T05:39:17;3.099999905;;;2.099999905;;